Time;durP1;ratioP1;P1;durP2;ratioP2;P2;SDS_P1;SDS_P2;PMS_P1;PMS_P2;Temp;Humidity;BMP_temperature;BMP_pressure;BME280_temperature;BME280_humidity;BME280_pressure;Samples;Min_cycle;Max_cycle;Signal;HPM_P1;HPM_P2
2022/01/22 00:01:55;;;;;;;26.15;7.90;;;;;;;;;;6249295;22;20071;-82
2022/01/22 00:04:20;;;;;;;24.38;6.30;;;;;;;;;;6248577;22;20004;-82
2022/01/22 00:06:46;;;;;;;16.23;6.68;;;;;;;;;;6274738;22;20004;-83
2022/01/22 00:09:12;;;;;;;22.58;6.95;;;;;;;;;;6224043;22;20007;-81
2022/01/22 00:11:41;;;;;;;22.63;7.93;;;;;;;;;;6249147;22;20061;-82
2022/01/22 00:14:24;;;;;;;21.98;8.02;;;;;;;;;;6248909;22;20106;-82
2022/01/22 00:16:51;;;;;;;17.75;7.28;;;;;;;;;;6276111;22;20004;-82
2022/01/22 00:19:17;;;;;;;26.98;8.73;;;;;;;;;;6274026;22;20003;-83
2022/01/22 00:21:42;;;;;;;24.95;8.43;;;;;;;;;;6274358;22;20358;-82
2022/01/22 00:24:11;;;;;;;20.90;8.00;;;;;;;;;;6276030;22;20049;-82
2022/01/22 00:26:36;;;;;;;16.88;6.43;;;;;;;;;;6273979;22;20517;-82
2022/01/22 00:29:02;;;;;;;10.52;4.40;;;;;;;;;;6275644;22;20007;-82
2022/01/22 00:31:27;;;;;;;16.42;4.40;;;;;;;;;;6276131;22;20022;-82
2022/01/22 00:33:53;;;;;;;15.60;5.00;;;;;;;;;;6275905;22;20007;-83
2022/01/22 00:36:18;;;;;;;18.88;4.85;;;;;;;;;;6274388;22;20003;-83
2022/01/22 00:38:43;;;;;;;18.48;4.60;;;;;;;;;;6275775;22;20004;-82
2022/01/22 00:41:09;;;;;;;12.77;4.72;;;;;;;;;;6274392;22;20054;-82
2022/01/22 00:43:35;;;;;;;17.85;5.40;;;;;;;;;;6275408;22;20034;-81
2022/01/22 00:46:00;;;;;;;16.20;5.70;;;;;;;;;;6274016;22;20007;-82
2022/01/22 00:48:26;;;;;;;18.67;6.10;;;;;;;;;;6273783;22;20014;-84
2022/01/22 00:50:55;;;;;;;23.90;6.32;;;;;;;;;;6274280;22;20327;-82
2022/01/22 00:53:20;;;;;;;32.88;6.63;;;;;;;;;;6274384;22;20003;-81
2022/01/22 00:55:46;;;;;;;18.17;5.38;;;;;;;;;;6248544;22;20006;-81
2022/01/22 00:58:12;;;;;;;15.35;5.18;;;;;;;;;;6248515;22;20056;-82
2022/01/22 01:00:37;;;;;;;16.80;5.72;;;;;;;;;;6273907;22;20008;-80
2022/01/22 01:03:03;;;;;;;15.55;4.78;;;;;;;;;;6248223;22;20016;-80
2022/01/22 01:05:28;;;;;;;14.18;4.30;;;;;;;;;;6274545;22;20008;-83
2022/01/22 01:07:54;;;;;;;24.10;5.65;;;;;;;;;;6275067;22;20035;-82
2022/01/22 01:10:20;;;;;;;18.35;5.32;;;;;;;;;;6277381;22;20003;-83
2022/01/22 01:12:47;;;;;;;13.40;5.45;;;;;;;;;;6275788;22;20015;-82
2022/01/22 01:33:58;;;;;;;11.90;4.57;;;;;;;;;;6275303;22;20015;-82
2022/01/22 01:36:23;;;;;;;13.45;4.38;;;;;;;;;;6275457;22;20026;-82
2022/01/22 01:38:54;;;;;;;18.40;4.65;;;;;;;;;;6273697;22;20008;-82
2022/01/22 01:41:56;;;;;;;11.15;4.40;;;;;;;;;;6275204;22;20435;-83
2022/01/22 01:44:11;;;;;;;11.05;3.92;;;;;;;;;;6267875;22;20082;-83
2022/01/22 01:46:43;;;;;;;10.32;4.22;;;;;;;;;;6274050;22;20027;-83
2022/01/22 01:49:08;;;;;;;10.85;4.65;;;;;;;;;;6273619;22;20389;-83
2022/01/22 01:51:35;;;;;;;14.27;3.97;;;;;;;;;;6275347;22;20066;-82
2022/01/22 01:54:22;;;;;;;10.02;3.22;;;;;;;;;;6273869;22;20438;-83
2022/01/22 01:59:31;;;;;;;14.82;4.40;;;;;;;;;;6274665;22;20343;-81
2022/01/22 02:01:57;;;;;;;10.93;4.10;;;;;;;;;;6224937;22;20011;-82
2022/01/22 02:04:23;;;;;;;13.88;4.80;;;;;;;;;;6249808;22;20007;-82
2022/01/22 02:06:48;;;;;;;12.10;4.30;;;;;;;;;;6275584;22;20010;-82
2022/01/22 02:09:14;;;;;;;11.55;4.03;;;;;;;;;;6275775;22;20011;-82
2022/01/22 02:11:41;;;;;;;20.30;5.13;;;;;;;;;;6276488;22;20007;-82
2022/01/22 02:25:03;;;;;;;20.15;6.28;;;;;;;;;;6276656;22;20018;-81
2022/01/22 02:27:29;;;;;;;18.23;5.45;;;;;;;;;;6276801;22;20082;-82
2022/01/22 02:29:54;;;;;;;21.50;6.65;;;;;;;;;;6276779;22;20010;-82
2022/01/22 02:35:18;;;;;;;14.40;5.53;;;;;;;;;;6277187;22;20007;-83
2022/01/22 02:37:51;;;;;;;17.58;4.60;;;;;;;;;;6276493;22;20003;-81
2022/01/22 02:40:29;;;;;;;10.45;4.93;;;;;;;;;;6274809;22;20004;-82
2022/01/22 02:42:54;;;;;;;17.70;5.53;;;;;;;;;;6276908;22;20019;-82
2022/01/22 02:45:23;;;;;;;19.33;5.05;;;;;;;;;;6276704;22;20430;-82
2022/01/22 02:47:49;;;;;;;17.70;5.70;;;;;;;;;;6276648;22;20078;-82
2022/01/22 02:50:14;;;;;;;15.38;4.97;;;;;;;;;;6275014;22;20004;-81
2022/01/22 02:52:40;;;;;;;13.93;5.65;;;;;;;;;;6249690;22;20424;-81
2022/01/22 02:55:07;;;;;;;18.85;4.95;;;;;;;;;;6274985;22;20010;-81
2022/01/22 02:57:34;;;;;;;17.38;5.10;;;;;;;;;;6276421;22;20061;-82
2022/01/22 03:00:00;;;;;;;13.95;4.45;;;;;;;;;;6275402;22;20481;-82
2022/01/22 03:02:26;;;;;;;11.75;4.53;;;;;;;;;;6274898;22;20003;-82
2022/01/22 03:04:52;;;;;;;9.52;3.33;;;;;;;;;;6274764;22;20078;-83
2022/01/22 03:07:17;;;;;;;13.98;4.00;;;;;;;;;;6275338;22;20012;-83
2022/01/22 03:09:46;;;;;;;12.02;4.13;;;;;;;;;;6276300;22;20059;-82
2022/01/22 03:20:34;;;;;;;24.15;5.43;;;;;;;;;;6276534;22;20138;-81
2022/01/22 03:23:08;;;;;;;20.58;5.63;;;;;;;;;;6276232;22;20007;-81
2022/01/22 03:28:21;;;;;;;18.88;5.18;;;;;;;;;;6276276;22;20015;-81
2022/01/22 03:30:47;;;;;;;20.53;6.73;;;;;;;;;;6274717;22;20476;-82
2022/01/22 03:33:14;;;;;;;10.13;4.13;;;;;;;;;;6249693;22;20003;-81
2022/01/22 03:35:44;;;;;;;10.48;4.13;;;;;;;;;;6275194;22;20002;-81
2022/01/22 03:38:10;;;;;;;17.05;5.55;;;;;;;;;;6274640;22;20090;-81
2022/01/22 03:40:36;;;;;;;15.65;7.13;;;;;;;;;;6275226;22;20480;-81
2022/01/22 03:43:02;;;;;;;22.00;6.38;;;;;;;;;;6274838;22;19999;-82
2022/01/22 03:45:27;;;;;;;18.70;6.38;;;;;;;;;;6275057;22;20057;-81
2022/01/22 03:47:53;;;;;;;17.05;5.78;;;;;;;;;;6274627;22;20008;-82
2022/01/22 03:50:19;;;;;;;22.13;8.60;;;;;;;;;;6276369;22;20049;-81
2022/01/22 03:52:45;;;;;;;17.23;7.15;;;;;;;;;;6274556;22;20008;-81
2022/01/22 03:55:20;;;;;;;27.58;9.73;;;;;;;;;;6276272;22;20343;-81
2022/01/22 03:57:46;;;;;;;20.38;6.72;;;;;;;;;;6276422;22;20015;-81
2022/01/22 04:00:12;;;;;;;18.30;7.32;;;;;;;;;;6276003;22;20000;-82
2022/01/22 04:05:06;;;;;;;32.50;9.35;;;;;;;;;;6275997;22;20075;-82
2022/01/22 04:08:11;;;;;;;27.42;9.98;;;;;;;;;;6274377;22;20011;-82
2022/01/22 04:10:35;;;;;;;32.38;10.40;;;;;;;;;;6274520;22;20011;-81
2022/01/22 04:13:05;;;;;;;32.47;10.82;;;;;;;;;;6276165;22;20392;-82
2022/01/22 04:15:34;;;;;;;27.50;9.10;;;;;;;;;;6249862;22;20004;-83
2022/01/22 04:26:27;;;;;;;16.92;6.45;;;;;;;;;;6275743;22;20150;-82
2022/01/22 04:28:52;;;;;;;12.55;5.28;;;;;;;;;;6275852;22;20359;-81
2022/01/22 04:31:17;;;;;;;18.17;6.30;;;;;;;;;;6275596;22;20003;-81
2022/01/22 04:33:44;;;;;;;16.17;6.25;;;;;;;;;;6275659;22;20004;-81
2022/01/22 04:36:11;;;;;;;17.30;7.38;;;;;;;;;;6275652;22;20038;-82
2022/01/22 04:38:36;;;;;;;27.63;6.95;;;;;;;;;;6275961;22;20007;-81
2022/01/22 04:41:04;;;;;;;28.35;7.60;;;;;;;;;;6275528;22;20359;-81
2022/01/22 04:43:32;;;;;;;15.23;6.28;;;;;;;;;;6275786;22;20006;-82
2022/01/22 04:56:43;;;;;;;23.88;8.13;;;;;;;;;;6275460;22;20094;-82
2022/01/22 04:59:08;;;;;;;17.67;6.60;;;;;;;;;;6276436;22;20003;-82
2022/01/22 05:01:34;;;;;;;16.67;6.53;;;;;;;;;;6275708;22;20064;-81
2022/01/22 05:03:59;;;;;;;20.90;6.80;;;;;;;;;;6275404;22;20418;-81
2022/01/22 05:06:26;;;;;;;19.08;6.75;;;;;;;;;;6275331;22;20008;-82
2022/01/22 05:08:52;;;;;;;17.52;7.65;;;;;;;;;;6278934;22;20006;-82
2022/01/22 05:11:18;;;;;;;19.52;8.38;;;;;;;;;;6249284;22;20046;-82
2022/01/22 05:13:43;;;;;;;22.35;7.07;;;;;;;;;;6282717;22;20053;-81
2022/01/22 05:16:09;;;;;;;16.30;6.18;;;;;;;;;;6279109;22;20010;-81
2022/01/22 05:18:41;;;;;;;18.77;6.72;;;;;;;;;;6275396;22;20004;-81
2022/01/22 05:21:11;;;;;;;22.10;6.82;;;;;;;;;;6275255;22;20003;-79
2022/01/22 05:23:38;;;;;;;15.98;5.47;;;;;;;;;;6275351;22;20023;-81
2022/01/22 05:26:08;;;;;;;23.83;7.15;;;;;;;;;;6275929;22;20031;-82
2022/01/22 05:31:10;;;;;;;20.48;7.55;;;;;;;;;;6283722;22;20343;-81
2022/01/22 05:39:03;;;;;;;19.65;8.15;;;;;;;;;;6284202;22;19914;-81
2022/01/22 05:41:29;;;;;;;24.15;8.77;;;;;;;;;;6282329;22;20334;-82
2022/01/22 05:43:54;;;;;;;27.27;9.88;;;;;;;;;;6283273;22;20010;-82
2022/01/22 05:46:20;;;;;;;30.20;8.38;;;;;;;;;;6284519;22;20007;-81
2022/01/22 05:48:46;;;;;;;44.30;10.18;;;;;;;;;;6284069;22;20027;-81
2022/01/22 05:51:12;;;;;;;26.33;8.48;;;;;;;;;;6275732;22;20075;-81
2022/01/22 06:01:15;;;;;;;32.92;11.70;;;;;;;;;;6275214;22;20011;-82
2022/01/22 06:03:41;;;;;;;26.58;10.45;;;;;;;;;;6275007;22;20437;-82
2022/01/22 06:06:06;;;;;;;23.70;9.25;;;;;;;;;;6275168;22;20000;-82
2022/01/22 06:08:38;;;;;;;25.27;9.18;;;;;;;;;;6275722;22;20057;-81
2022/01/22 06:11:08;;;;;;;32.25;10.63;;;;;;;;;;6274960;22;20003;-82
2022/01/22 06:13:44;;;;;;;39.25;12.07;;;;;;;;;;6275318;22;20114;-82
2022/01/22 06:16:13;;;;;;;30.70;11.85;;;;;;;;;;6275360;22;20004;-82
2022/01/22 06:18:38;;;;;;;47.28;14.63;;;;;;;;;;6275198;22;20010;-82
2022/01/22 06:21:04;;;;;;;42.92;15.90;;;;;;;;;;6273645;22;20012;-82
2022/01/22 06:23:30;;;;;;;42.78;15.43;;;;;;;;;;6274018;22;20003;-82
2022/01/22 06:26:00;;;;;;;37.22;13.20;;;;;;;;;;6275055;22;20004;-82
2022/01/22 06:28:25;;;;;;;48.50;15.52;;;;;;;;;;6274847;22;20023;-82
2022/01/22 06:30:51;;;;;;;48.92;16.85;;;;;;;;;;6273967;22;20007;-82
2022/01/22 06:33:18;;;;;;;47.50;16.73;;;;;;;;;;6274278;22;20347;-81
2022/01/22 06:35:43;;;;;;;36.95;14.50;;;;;;;;;;6274160;22;20362;-82
2022/01/22 06:38:09;;;;;;;44.42;16.00;;;;;;;;;;6276470;22;20031;-82
2022/01/22 06:47:09;;;;;;;63.63;19.70;;;;;;;;;;6276017;22;20007;-82
2022/01/22 06:49:35;;;;;;;62.38;19.98;;;;;;;;;;6221596;22;20458;-81
2022/01/22 06:52:01;;;;;;;65.25;20.98;;;;;;;;;;6280423;22;20007;-82
2022/01/22 06:54:26;;;;;;;63.35;22.10;;;;;;;;;;6284247;22;20011;-83
2022/01/22 06:56:52;;;;;;;61.85;20.52;;;;;;;;;;6275803;22;20053;-82
2022/01/22 06:59:17;;;;;;;55.25;18.55;;;;;;;;;;6274555;22;20093;-83
2022/01/22 07:01:44;;;;;;;44.25;17.02;;;;;;;;;;6274612;22;20002;-82
2022/01/22 07:04:10;;;;;;;53.28;17.92;;;;;;;;;;6274778;22;20018;-84
2022/01/22 07:06:35;;;;;;;62.10;21.10;;;;;;;;;;6275013;22;20087;-82
2022/01/22 07:09:01;;;;;;;70.90;24.02;;;;;;;;;;6273347;22;20000;-82
2022/01/22 07:11:26;;;;;;;80.40;27.80;;;;;;;;;;6272700;22;20125;-82
2022/01/22 07:13:52;;;;;;;81.00;27.73;;;;;;;;;;6273535;22;19999;-82
2022/01/22 07:16:17;;;;;;;109.82;34.72;;;;;;;;;;6271989;22;19999;-82
2022/01/22 07:18:43;;;;;;;144.02;46.88;;;;;;;;;;6273880;22;20007;-82
2022/01/22 07:21:20;;;;;;;92.43;33.63;;;;;;;;;;6271711;22;20208;-82
2022/01/22 07:26:14;;;;;;;82.38;27.73;;;;;;;;;;6275517;22;20010;-83
2022/01/22 07:28:40;;;;;;;93.82;29.42;;;;;;;;;;6276530;22;19999;-82
2022/01/22 07:31:06;;;;;;;64.72;23.65;;;;;;;;;;6275900;22;20084;-82
2022/01/22 07:33:32;;;;;;;42.25;14.20;;;;;;;;;;6276429;22;20489;-82
2022/01/22 07:35:57;;;;;;;39.75;14.02;;;;;;;;;;6249487;22;20003;-81
2022/01/22 07:38:23;;;;;;;46.53;17.00;;;;;;;;;;6276043;22;20422;-82
2022/01/22 07:40:48;;;;;;;31.13;11.85;;;;;;;;;;6276206;22;20057;-82
2022/01/22 07:43:14;;;;;;;39.15;13.05;;;;;;;;;;6274540;22;20000;-82
2022/01/22 07:45:40;;;;;;;35.28;12.48;;;;;;;;;;6276151;22;20065;-82
2022/01/22 07:48:06;;;;;;;26.10;10.10;;;;;;;;;;6276031;22;20049;-82
2022/01/22 07:50:31;;;;;;;38.75;11.30;;;;;;;;;;6276210;22;20351;-83
2022/01/22 07:52:57;;;;;;;40.95;11.95;;;;;;;;;;6276399;22;20094;-84
2022/01/22 07:55:23;;;;;;;34.92;11.43;;;;;;;;;;6276187;22;19999;-81
2022/01/22 07:57:49;;;;;;;37.30;11.77;;;;;;;;;;6275724;22;20010;-82
2022/01/22 08:00:16;;;;;;;36.75;11.63;;;;;;;;;;6274811;22;20004;-82
2022/01/22 08:02:42;;;;;;;50.13;15.68;;;;;;;;;;6275684;22;20034;-83
2022/01/22 08:05:08;;;;;;;36.78;12.80;;;;;;;;;;6274779;22;20082;-82
2022/01/22 08:07:33;;;;;;;43.20;13.48;;;;;;;;;;6276049;22;20362;-81
2022/01/22 08:09:59;;;;;;;42.42;14.25;;;;;;;;;;6276204;22;20405;-81
2022/01/22 08:12:24;;;;;;;44.85;17.05;;;;;;;;;;6276095;22;19999;-83
2022/01/22 08:14:50;;;;;;;28.15;10.27;;;;;;;;;;6274694;22;20003;-83
2022/01/22 08:17:15;;;;;;;30.45;10.80;;;;;;;;;;6276331;22;19999;-82
2022/01/22 08:19:41;;;;;;;40.65;12.60;;;;;;;;;;6275709;22;20053;-83
2022/01/22 08:22:06;;;;;;;46.90;14.85;;;;;;;;;;6223439;22;19996;-83
2022/01/22 08:24:32;;;;;;;33.08;12.18;;;;;;;;;;6273469;22;20004;-83
2022/01/22 08:27:11;;;;;;;45.83;13.15;;;;;;;;;;6275210;22;20007;-83
2022/01/22 08:29:37;;;;;;;44.83;13.40;;;;;;;;;;6274927;22;20362;-83
2022/01/22 08:32:22;;;;;;;32.83;11.32;;;;;;;;;;6274950;22;20003;-84
2022/01/22 08:37:31;;;;;;;41.88;13.77;;;;;;;;;;6252649;22;20058;-83
2022/01/22 08:39:57;;;;;;;33.75;11.02;;;;;;;;;;6274787;22;20004;-83
2022/01/22 08:42:23;;;;;;;65.20;20.98;;;;;;;;;;6274085;22;20000;-83
2022/01/22 08:44:49;;;;;;;57.42;20.02;;;;;;;;;;6274022;22;20031;-84
2022/01/22 08:47:15;;;;;;;41.47;15.68;;;;;;;;;;6248018;22;20033;-82
2022/01/22 08:49:40;;;;;;;76.47;29.40;;;;;;;;;;6272473;22;20004;-84
2022/01/22 08:52:11;;;;;;;26.35;10.63;;;;;;;;;;6247236;22;20031;-82
2022/01/22 08:54:37;;;;;;;;;;;;;;;;;;6272793;22;20008;-83
2022/01/22 08:57:12;;;;;;;23.95;8.10;;;;;;;;;;6273132;22;19914;-83
2022/01/22 08:59:38;;;;;;;27.58;6.95;;;;;;;;;;6272868;22;20087;-83
2022/01/22 09:02:03;;;;;;;22.75;7.55;;;;;;;;;;6247382;22;20350;-82
2022/01/22 09:04:30;;;;;;;25.88;8.68;;;;;;;;;;6275061;22;20008;-83
2022/01/22 09:06:56;;;;;;;25.25;9.43;;;;;;;;;;6275059;22;20011;-82
2022/01/22 09:09:22;;;;;;;29.40;8.35;;;;;;;;;;6275176;22;20007;-81
2022/01/22 09:11:47;;;;;;;16.85;7.03;;;;;;;;;;6275084;22;20065;-82
2022/01/22 09:14:15;;;;;;;24.60;8.82;;;;;;;;;;6274977;22;20007;-83
2022/01/22 09:16:40;;;;;;;28.70;11.60;;;;;;;;;;6274023;22;20000;-83
2022/01/22 09:19:09;;;;;;;38.75;11.40;;;;;;;;;;6273743;22;20091;-83
2022/01/22 09:21:38;;;;;;;42.80;13.93;;;;;;;;;;6274038;22;20010;-83
2022/01/22 09:24:04;;;;;;;30.38;11.15;;;;;;;;;;6271920;22;20057;-82
2022/01/22 09:26:30;;;;;;;53.95;18.17;;;;;;;;;;6274377;22;20053;-83
2022/01/22 09:28:58;;;;;;;91.47;34.83;;;;;;;;;;6274336;22;20074;-83
2022/01/22 09:31:25;;;;;;;63.90;25.05;;;;;;;;;;6275224;22;20064;-82
2022/01/22 09:33:52;;;;;;;49.92;20.08;;;;;;;;;;6248476;22;20004;-84
2022/01/22 09:36:17;;;;;;;44.92;16.40;;;;;;;;;;6275596;22;20002;-83
2022/01/22 09:38:43;;;;;;;47.83;13.77;;;;;;;;;;6275616;22;20074;-82
2022/01/22 09:41:08;;;;;;;40.97;12.57;;;;;;;;;;6275388;22;20079;-83
2022/01/22 09:43:34;;;;;;;68.78;22.10;;;;;;;;;;6275006;22;20415;-83
2022/01/22 09:45:59;;;;;;;46.85;16.02;;;;;;;;;;6273560;22;20315;-83
2022/01/22 09:48:25;;;;;;;37.95;14.52;;;;;;;;;;6274250;22;20035;-83
2022/01/22 09:50:50;;;;;;;55.72;19.52;;;;;;;;;;6275352;22;20079;-83
2022/01/22 09:53:16;;;;;;;38.85;12.57;;;;;;;;;;6275409;22;20392;-84
2022/01/22 09:55:41;;;;;;;25.45;10.05;;;;;;;;;;6275203;22;20012;-81
2022/01/22 09:58:07;;;;;;;35.00;12.07;;;;;;;;;;6275170;22;20082;-83
2022/01/22 10:00:33;;;;;;;37.67;12.68;;;;;;;;;;6273350;22;20062;-82
2022/01/22 10:02:58;;;;;;;94.70;31.90;;;;;;;;;;6275297;22;20003;-83
2022/01/22 10:05:30;;;;;;;36.63;14.73;;;;;;;;;;6273518;22;20039;-84
2022/01/22 10:08:17;;;;;;;56.55;24.98;;;;;;;;;;6275346;22;20425;-83
2022/01/22 10:10:43;;;;;;;83.80;40.80;;;;;;;;;;6274648;22;20008;-83
2022/01/22 10:13:08;;;;;;;39.45;15.90;;;;;;;;;;6274927;22;20031;-82
2022/01/22 10:15:35;;;;;;;59.80;26.48;;;;;;;;;;6275516;22;20503;-82
2022/01/22 10:18:02;;;;;;;45.13;19.52;;;;;;;;;;6273697;22;20004;-82
2022/01/22 10:20:38;;;;;;;45.50;17.42;;;;;;;;;;6276117;22;20347;-82
2022/01/22 10:23:10;;;;;;;39.95;15.68;;;;;;;;;;6276941;22;20011;-82
2022/01/22 10:25:43;;;;;;;52.03;17.08;;;;;;;;;;6250850;22;20008;-82
2022/01/22 10:28:12;;;;;;;35.85;13.75;;;;;;;;;;6275629;22;20027;-84
2022/01/22 10:30:40;;;;;;;65.05;22.77;;;;;;;;;;6276793;22;20000;-83
2022/01/22 10:33:34;;;;;;;51.95;17.95;;;;;;;;;;6275625;22;20427;-83
2022/01/22 10:36:21;;;;;;;36.17;11.50;;;;;;;;;;6254590;22;20492;-84
2022/01/22 10:38:52;;;;;;;62.90;18.85;;;;;;;;;;6276520;22;20008;-83
2022/01/22 10:41:31;;;;;;;53.53;15.75;;;;;;;;;;6276714;22;20035;-83
2022/01/22 10:43:56;;;;;;;77.68;24.70;;;;;;;;;;6275669;22;20017;-82
2022/01/22 10:49:19;;;;;;;43.95;16.17;;;;;;;;;;6275405;22;20006;-83
2022/01/22 10:51:44;;;;;;;65.25;23.92;;;;;;;;;;6276073;22;20015;-83
2022/01/22 10:54:10;;;;;;;74.82;24.63;;;;;;;;;;6276259;22;19996;-83
2022/01/22 10:56:39;;;;;;;53.40;17.17;;;;;;;;;;6276820;22;20137;-83
2022/01/22 10:59:06;;;;;;;30.15;11.02;;;;;;;;;;6274095;22;20034;-84
2022/01/22 11:01:47;;;;;;;37.70;11.10;;;;;;;;;;6250418;22;20003;-84
2022/01/22 11:04:16;;;;;;;35.95;9.55;;;;;;;;;;6276858;22;20008;-82
2022/01/22 11:07:05;;;;;;;35.80;9.73;;;;;;;;;;6249572;22;20008;-82
2022/01/22 11:09:31;;;;;;;45.30;10.45;;;;;;;;;;6275450;22;20004;-84
2022/01/22 11:11:57;;;;;;;44.70;11.48;;;;;;;;;;6276631;22;20141;-81
2022/01/22 11:14:23;;;;;;;41.65;11.88;;;;;;;;;;6276579;22;20023;-82
2022/01/22 11:16:49;;;;;;;41.78;10.95;;;;;;;;;;6224496;22;20438;-82
2022/01/22 11:19:19;;;;;;;39.15;10.15;;;;;;;;;;6276215;22;20007;-82
2022/01/22 11:21:52;;;;;;;53.43;13.97;;;;;;;;;;6250300;22;20072;-82
2022/01/22 11:24:22;;;;;;;55.97;15.00;;;;;;;;;;6274648;22;20011;-82
2022/01/22 11:27:00;;;;;;;39.85;10.52;;;;;;;;;;6223983;22;20010;-83
2022/01/22 11:30:03;;;;;;;25.83;7.75;;;;;;;;;;6249661;22;20050;-84
2022/01/22 11:32:32;;;;;;;27.70;9.05;;;;;;;;;;6274253;22;20517;-84
2022/01/22 11:35:00;;;;;;;43.40;11.45;;;;;;;;;;6224243;22;20415;-83
2022/01/22 11:37:31;;;;;;;28.75;7.97;;;;;;;;;;6274002;22;20007;-82
2022/01/22 11:40:13;;;;;;;21.10;7.38;;;;;;;;;;6276978;22;20004;-83
2022/01/22 11:43:12;;;;;;;25.95;8.07;;;;;;;;;;6274296;22;20450;-82
2022/01/22 11:45:49;;;;;;;39.63;10.73;;;;;;;;;;6274459;22;20035;-83
2022/01/22 11:48:25;;;;;;;41.63;10.90;;;;;;;;;;6275995;22;20035;-82
2022/01/22 11:50:52;;;;;;;47.30;11.07;;;;;;;;;;6274266;22;20004;-81
2022/01/22 11:53:29;;;;;;;37.85;10.27;;;;;;;;;;6274826;22;20428;-82
2022/01/22 11:56:10;;;;;;;36.75;9.73;;;;;;;;;;6274990;22;20083;-82
2022/01/22 11:58:54;;;;;;;;;;;;;;;;;;6277240;22;20007;-84
2022/01/22 12:01:40;;;;;;;29.63;10.45;;;;;;;;;;6275905;22;19931;-83
2022/01/22 12:04:06;;;;;;;37.75;11.07;;;;;;;;;;6275721;22;20367;-83
2022/01/22 12:06:32;;;;;;;51.13;14.07;;;;;;;;;;6274078;22;20004;-83
2022/01/22 12:09:07;;;;;;;50.42;13.00;;;;;;;;;;6274796;22;20069;-82
2022/01/22 12:14:51;;;;;;;52.10;13.35;;;;;;;;;;6276073;22;20012;-82
2022/01/22 12:17:27;;;;;;;47.38;12.00;;;;;;;;;;6275795;22;20042;-82
2022/01/22 12:20:16;;;;;;;43.83;12.32;;;;;;;;;;6275647;22;20351;-82
2022/01/22 12:22:38;;;;;;;45.22;14.40;;;;;;;;;;6275484;22;20015;-83
2022/01/22 12:25:24;;;;;;;55.33;15.68;;;;;;;;;;6275606;22;19999;-82
2022/01/22 12:27:50;;;;;;;54.45;15.00;;;;;;;;;;6264983;22;20008;-84
2022/01/22 12:30:31;;;;;;;70.00;17.90;;;;;;;;;;6249670;22;20004;-83
2022/01/22 12:32:58;;;;;;;52.13;14.13;;;;;;;;;;6275456;22;20007;-83
2022/01/22 12:35:36;;;;;;;27.27;8.35;;;;;;;;;;6273671;22;20414;-83
2022/01/22 12:38:32;;;;;;;26.42;9.80;;;;;;;;;;6248578;22;20419;-83
2022/01/22 12:44:31;;;;;;;61.75;17.10;;;;;;;;;;6274120;22;20053;-83
2022/01/22 12:46:58;;;;;;;55.72;18.13;;;;;;;;;;6275728;22;20496;-82
2022/01/22 12:49:24;;;;;;;43.85;14.32;;;;;;;;;;6273264;22;20024;-83
2022/01/22 12:52:06;;;;;;;43.80;13.82;;;;;;;;;;6274241;22;20007;-83
2022/01/22 12:54:42;;;;;;;27.52;9.60;;;;;;;;;;6275681;22;20000;-82
2022/01/22 12:57:08;;;;;;;30.48;11.23;;;;;;;;;;6250070;22;20326;-83
2022/01/22 12:59:54;;;;;;;32.75;10.05;;;;;;;;;;6275541;22;20007;-83
2022/01/22 13:02:42;;;;;;;33.10;10.73;;;;;;;;;;6275403;22;20054;-82
2022/01/22 13:05:18;;;;;;;28.45;10.40;;;;;;;;;;6274769;22;19999;-82
2022/01/22 13:07:45;;;;;;;23.70;7.35;;;;;;;;;;6273596;22;20008;-82
2022/01/22 13:10:11;;;;;;;27.17;9.73;;;;;;;;;;6273789;22;20000;-83
2022/01/22 13:12:37;;;;;;;19.75;7.25;;;;;;;;;;6275045;22;20014;-84
2022/01/22 13:15:04;;;;;;;33.47;8.88;;;;;;;;;;6274364;22;20011;-81
2022/01/22 13:17:31;;;;;;;30.52;8.90;;;;;;;;;;6273633;22;20018;-84
2022/01/22 13:20:00;;;;;;;39.28;11.63;;;;;;;;;;6273468;22;20008;-83
2022/01/22 13:22:36;;;;;;;42.63;12.90;;;;;;;;;;6275439;22;20007;-83
2022/01/22 13:25:03;;;;;;;28.52;9.25;;;;;;;;;;6275233;22;20006;-83
2022/01/22 13:27:32;;;;;;;28.52;9.95;;;;;;;;;;6273473;22;20003;-83
2022/01/22 13:29:58;;;;;;;21.30;7.82;;;;;;;;;;6275024;22;20007;-83
2022/01/22 13:48:31;;;;;;;33.05;10.98;;;;;;;;;;6274131;22;20013;-85
2022/01/22 13:50:57;;;;;;;44.88;14.68;;;;;;;;;;6275685;22;20023;-82
2022/01/22 13:53:22;;;;;;;37.58;11.88;;;;;;;;;;6276659;22;20362;-84
2022/01/22 13:56:06;;;;;;;45.35;16.15;;;;;;;;;;6276288;22;19999;-83
2022/01/22 13:58:31;;;;;;;36.83;13.23;;;;;;;;;;6275523;22;20107;-83
2022/01/22 14:01:04;;;;;;;43.25;13.95;;;;;;;;;;6248310;22;20006;-81
2022/01/22 14:03:47;;;;;;;54.10;17.52;;;;;;;;;;6249984;22;20043;-84
2022/01/22 14:06:14;;;;;;;57.65;20.02;;;;;;;;;;6274264;22;20113;-83
2022/01/22 14:08:39;;;;;;;49.50;17.30;;;;;;;;;;6277792;22;20010;-84
2022/01/22 14:11:12;;;;;;;50.78;17.60;;;;;;;;;;6274136;22;20023;-82
2022/01/22 14:13:38;;;;;;;66.82;22.85;;;;;;;;;;6274374;22;20026;-83
2022/01/22 14:16:14;;;;;;;76.38;28.88;;;;;;;;;;6273450;22;20459;-82
2022/01/22 14:18:41;;;;;;;119.00;44.05;;;;;;;;;;6276463;22;20075;-84
2022/01/22 14:21:14;;;;;;;95.53;35.95;;;;;;;;;;6280299;22;20010;-82
2022/01/22 14:23:40;;;;;;;70.30;24.95;;;;;;;;;;6281677;22;20000;-84
2022/01/22 14:26:25;;;;;;;61.15;25.45;;;;;;;;;;6275708;22;20006;-84
2022/01/22 14:28:52;;;;;;;84.60;33.15;;;;;;;;;;6274286;22;20332;-81
2022/01/22 14:31:20;;;;;;;52.33;19.10;;;;;;;;;;6276525;22;20373;-82
2022/01/22 14:33:46;;;;;;;46.65;18.58;;;;;;;;;;6273989;22;20031;-83
2022/01/22 14:36:20;;;;;;;46.15;17.38;;;;;;;;;;6273750;22;20000;-82
2022/01/22 14:38:52;;;;;;;47.55;17.02;;;;;;;;;;6273665;22;20004;-82
2022/01/22 14:46:53;;;;;;;52.47;19.15;;;;;;;;;;6252178;22;20011;-83
2022/01/22 14:49:34;;;;;;;44.38;15.77;;;;;;;;;;6276921;22;20008;-84
2022/01/22 14:51:59;;;;;;;46.30;17.38;;;;;;;;;;6278626;22;20054;-83
2022/01/22 14:54:26;;;;;;;50.47;16.08;;;;;;;;;;6275358;22;20046;-84
2022/01/22 14:56:51;;;;;;;61.65;23.85;;;;;;;;;;6275870;22;20381;-82
2022/01/22 14:59:18;;;;;;;96.47;29.48;;;;;;;;;;6294070;22;20027;-83
2022/01/22 15:01:43;;;;;;;76.90;22.17;;;;;;;;;;6298179;22;20006;-83
2022/01/22 15:04:09;;;;;;;64.45;24.05;;;;;;;;;;6298064;22;20007;-83
2022/01/22 15:06:34;;;;;;;66.28;22.20;;;;;;;;;;6299255;22;20004;-83
2022/01/22 15:09:00;;;;;;;70.88;24.33;;;;;;;;;;6298583;22;19992;-80
2022/01/22 15:11:25;;;;;;;70.55;20.48;;;;;;;;;;6293862;22;20000;-82
2022/01/22 15:13:51;;;;;;;65.22;20.17;;;;;;;;;;6280607;22;19995;-83
2022/01/22 15:16:18;;;;;;;70.93;21.95;;;;;;;;;;6281139;22;20086;-82
2022/01/22 15:21:10;;;;;;;56.42;20.30;;;;;;;;;;6276993;22;20008;-82
2022/01/22 15:23:36;;;;;;;83.63;26.27;;;;;;;;;;6277311;22;20059;-83
2022/01/22 15:26:02;;;;;;;72.60;22.63;;;;;;;;;;6276416;22;20362;-82
2022/01/22 15:28:32;;;;;;;86.75;28.80;;;;;;;;;;6250015;22;20004;-81
2022/01/22 15:30:58;;;;;;;78.47;27.42;;;;;;;;;;6251765;22;19999;-82
2022/01/22 15:33:36;;;;;;;133.05;37.40;;;;;;;;;;6250635;22;20427;-83
2022/01/22 15:36:02;;;;;;;123.95;31.83;;;;;;;;;;6230348;22;20008;-81
2022/01/22 15:38:28;;;;;;;151.13;35.83;;;;;;;;;;6224858;22;20015;-83
2022/01/22 15:40:53;;;;;;;130.18;31.40;;;;;;;;;;6275254;22;20094;-82
2022/01/22 15:43:19;;;;;;;142.07;29.33;;;;;;;;;;6275167;22;20007;-82
2022/01/22 15:45:44;;;;;;;133.77;30.42;;;;;;;;;;6224187;22;20012;-82
2022/01/22 15:48:10;;;;;;;82.50;21.98;;;;;;;;;;6275286;22;20073;-82
2022/01/22 15:50:37;;;;;;;85.47;26.60;;;;;;;;;;6276843;22;20056;-82
2022/01/22 15:53:03;;;;;;;75.88;27.63;;;;;;;;;;6276241;22;20078;-83
2022/01/22 15:55:28;;;;;;;94.88;25.08;;;;;;;;;;6276844;22;20004;-81
2022/01/22 15:57:56;;;;;;;78.63;21.15;;;;;;;;;;6274971;22;20054;-82
2022/01/22 16:00:22;;;;;;;81.82;23.55;;;;;;;;;;6276483;22;20351;-81
2022/01/22 16:02:47;;;;;;;66.30;21.85;;;;;;;;;;6276604;22;20000;-82
2022/01/22 16:05:13;;;;;;;42.95;14.82;;;;;;;;;;6276619;22;20008;-82
2022/01/22 16:07:38;;;;;;;33.35;13.13;;;;;;;;;;6249869;22;20003;-82
2022/01/22 16:10:05;;;;;;;42.75;15.15;;;;;;;;;;6224172;22;20018;-84
2022/01/22 16:12:31;;;;;;;36.20;13.52;;;;;;;;;;6276330;22;20010;-82
2022/01/22 16:14:56;;;;;;;25.75;11.68;;;;;;;;;;6257117;22;20000;-81
2022/01/22 16:17:23;;;;;;;41.00;14.68;;;;;;;;;;6276430;22;20087;-81
2022/01/22 16:19:49;;;;;;;37.42;13.82;;;;;;;;;;6275396;22;20008;-82
2022/01/22 16:22:15;;;;;;;47.75;17.38;;;;;;;;;;6277554;22;20058;-83
2022/01/22 16:24:41;;;;;;;47.05;17.35;;;;;;;;;;6275065;22;20079;-81
2022/01/22 16:27:06;;;;;;;42.95;15.40;;;;;;;;;;6249462;22;20419;-83
2022/01/22 16:29:32;;;;;;;58.53;19.48;;;;;;;;;;6276280;22;20003;-82
2022/01/22 16:31:58;;;;;;;106.47;28.02;;;;;;;;;;6276298;22;20406;-82
2022/01/22 16:34:23;;;;;;;65.28;21.38;;;;;;;;;;6276138;22;20004;-82
2022/01/22 16:36:49;;;;;;;43.35;14.13;;;;;;;;;;6274140;22;20003;-82
2022/01/22 16:39:14;;;;;;;43.80;14.82;;;;;;;;;;6275280;22;20004;-82
2022/01/22 16:41:40;;;;;;;45.78;16.38;;;;;;;;;;6277569;22;20000;-81